sensor_id;sensor_type;location;lat;lon;timestamp;P1;durP1;ratioP1;P2;durP2;ratioP2
58864;SDS011;45702;52.982;6.658;2024-01-30T00:02:00;78.80;;;38.63;;
58864;SDS011;45702;52.982;6.658;2024-01-30T00:04:26;78.63;;;38.83;;
58864;SDS011;45702;52.982;6.658;2024-01-30T00:06:52;83.60;;;40.72;;
58864;SDS011;45702;52.982;6.658;2024-01-30T00:09:18;79.88;;;39.45;;
58864;SDS011;45702;52.982;6.658;2024-01-30T00:11:44;81.18;;;39.45;;
58864;SDS011;45702;52.982;6.658;2024-01-30T00:14:10;82.47;;;40.55;;
58864;SDS011;45702;52.982;6.658;2024-01-30T00:16:36;78.88;;;39.63;;
58864;SDS011;45702;52.982;6.658;2024-01-30T00:19:02;82.93;;;41.60;;
58864;SDS011;45702;52.982;6.658;2024-01-30T00:21:28;84.43;;;40.60;;
58864;SDS011;45702;52.982;6.658;2024-01-30T00:23:54;83.90;;;39.90;;
58864;SDS011;45702;52.982;6.658;2024-01-30T00:26:21;84.10;;;40.05;;
58864;SDS011;45702;52.982;6.658;2024-01-30T00:28:47;86.00;;;41.03;;
58864;SDS011;45702;52.982;6.658;2024-01-30T00:31:13;87.60;;;42.47;;
58864;SDS011;45702;52.982;6.658;2024-01-30T00:33:39;87.28;;;41.50;;
58864;SDS011;45702;52.982;6.658;2024-01-30T00:36:05;86.20;;;40.40;;
58864;SDS011;45702;52.982;6.658;2024-01-30T00:38:31;89.10;;;39.42;;
58864;SDS011;45702;52.982;6.658;2024-01-30T00:40:58;85.68;;;40.65;;
58864;SDS011;45702;52.982;6.658;2024-01-30T00:43:24;82.25;;;39.55;;
58864;SDS011;45702;52.982;6.658;2024-01-30T00:45:50;87.93;;;40.28;;
58864;SDS011;45702;52.982;6.658;2024-01-30T00:48:20;85.82;;;41.15;;
58864;SDS011;45702;52.982;6.658;2024-01-30T00:50:46;85.40;;;41.47;;
58864;SDS011;45702;52.982;6.658;2024-01-30T00:53:12;82.47;;;40.10;;
58864;SDS011;45702;52.982;6.658;2024-01-30T00:55:38;87.90;;;39.17;;
58864;SDS011;45702;52.982;6.658;2024-01-30T00:58:04;87.07;;;40.78;;
58864;SDS011;45702;52.982;6.658;2024-01-30T01:00:31;84.85;;;39.85;;
58864;SDS011;45702;52.982;6.658;2024-01-30T01:02:58;85.90;;;41.65;;
58864;SDS011;45702;52.982;6.658;2024-01-30T01:05:24;85.30;;;41.65;;
58864;SDS011;45702;52.982;6.658;2024-01-30T01:07:50;83.07;;;40.60;;
58864;SDS011;45702;52.982;6.658;2024-01-30T01:10:16;84.15;;;41.15;;
58864;SDS011;45702;52.982;6.658;2024-01-30T01:12:43;84.32;;;40.35;;
58864;SDS011;45702;52.982;6.658;2024-01-30T01:15:09;92.28;;;40.20;;
58864;SDS011;45702;52.982;6.658;2024-01-30T01:17:36;86.50;;;40.22;;
58864;SDS011;45702;52.982;6.658;2024-01-30T01:20:02;90.63;;;40.60;;
58864;SDS011;45702;52.982;6.658;2024-01-30T01:22:29;86.68;;;40.70;;
58864;SDS011;45702;52.982;6.658;2024-01-30T01:24:55;88.15;;;40.25;;
58864;SDS011;45702;52.982;6.658;2024-01-30T01:27:21;85.95;;;38.00;;
58864;SDS011;45702;52.982;6.658;2024-01-30T01:29:47;92.55;;;39.33;;
58864;SDS011;45702;52.982;6.658;2024-01-30T01:32:14;81.00;;;39.00;;
58864;SDS011;45702;52.982;6.658;2024-01-30T01:34:40;90.45;;;39.35;;
58864;SDS011;45702;52.982;6.658;2024-01-30T01:37:06;87.07;;;39.78;;
58864;SDS011;45702;52.982;6.658;2024-01-30T01:39:32;84.85;;;39.15;;
58864;SDS011;45702;52.982;6.658;2024-01-30T01:41:58;91.78;;;40.75;;
58864;SDS011;45702;52.982;6.658;2024-01-30T01:44:24;88.80;;;39.67;;
58864;SDS011;45702;52.982;6.658;2024-01-30T01:46:51;84.05;;;39.35;;
58864;SDS011;45702;52.982;6.658;2024-01-30T01:49:17;86.03;;;39.70;;
58864;SDS011;45702;52.982;6.658;2024-01-30T01:51:44;81.60;;;36.45;;
58864;SDS011;45702;52.982;6.658;2024-01-30T01:54:11;85.88;;;38.13;;
58864;SDS011;45702;52.982;6.658;2024-01-30T01:56:37;84.32;;;39.85;;
58864;SDS011;45702;52.982;6.658;2024-01-30T01:59:07;79.78;;;37.63;;
58864;SDS011;45702;52.982;6.658;2024-01-30T02:01:34;79.78;;;37.20;;
58864;SDS011;45702;52.982;6.658;2024-01-30T02:04:00;87.97;;;37.72;;
58864;SDS011;45702;52.982;6.658;2024-01-30T02:06:26;79.47;;;38.65;;
58864;SDS011;45702;52.982;6.658;2024-01-30T02:08:53;84.20;;;37.17;;
58864;SDS011;45702;52.982;6.658;2024-01-30T02:11:19;81.45;;;37.92;;
58864;SDS011;45702;52.982;6.658;2024-01-30T02:13:46;79.72;;;35.20;;
58864;SDS011;45702;52.982;6.658;2024-01-30T02:16:12;80.45;;;37.80;;
58864;SDS011;45702;52.982;6.658;2024-01-30T02:18:38;78.68;;;37.40;;
58864;SDS011;45702;52.982;6.658;2024-01-30T02:21:08;85.85;;;38.78;;
58864;SDS011;45702;52.982;6.658;2024-01-30T02:23:34;87.20;;;37.88;;
58864;SDS011;45702;52.982;6.658;2024-01-30T02:26:00;85.05;;;36.78;;
58864;SDS011;45702;52.982;6.658;2024-01-30T02:28:26;81.78;;;36.30;;
58864;SDS011;45702;52.982;6.658;2024-01-30T02:30:52;80.68;;;36.83;;
58864;SDS011;45702;52.982;6.658;2024-01-30T02:33:18;85.38;;;36.97;;
58864;SDS011;45702;52.982;6.658;2024-01-30T02:35:47;80.93;;;36.47;;
58864;SDS011;45702;52.982;6.658;2024-01-30T02:38:13;84.03;;;37.40;;
58864;SDS011;45702;52.982;6.658;2024-01-30T02:40:39;81.13;;;36.70;;
58864;SDS011;45702;52.982;6.658;2024-01-30T02:43:06;81.82;;;35.83;;
58864;SDS011;45702;52.982;6.658;2024-01-30T02:45:32;84.20;;;38.05;;
58864;SDS011;45702;52.982;6.658;2024-01-30T02:47:58;82.38;;;37.67;;
58864;SDS011;45702;52.982;6.658;2024-01-30T02:50:24;85.22;;;36.13;;
58864;SDS011;45702;52.982;6.658;2024-01-30T02:52:50;85.05;;;37.72;;
58864;SDS011;45702;52.982;6.658;2024-01-30T02:55:16;79.40;;;35.85;;
58864;SDS011;45702;52.982;6.658;2024-01-30T02:57:43;82.80;;;37.70;;
58864;SDS011;45702;52.982;6.658;2024-01-30T03:00:09;85.28;;;37.95;;
58864;SDS011;45702;52.982;6.658;2024-01-30T03:02:36;83.70;;;36.88;;
58864;SDS011;45702;52.982;6.658;2024-01-30T03:05:02;81.03;;;36.63;;
58864;SDS011;45702;52.982;6.658;2024-01-30T03:07:29;83.18;;;37.75;;
58864;SDS011;45702;52.982;6.658;2024-01-30T03:09:55;83.20;;;36.13;;
58864;SDS011;45702;52.982;6.658;2024-01-30T03:12:21;80.95;;;37.75;;
58864;SDS011;45702;52.982;6.658;2024-01-30T03:14:47;88.63;;;36.47;;
58864;SDS011;45702;52.982;6.658;2024-01-30T03:17:14;84.57;;;36.60;;
58864;SDS011;45702;52.982;6.658;2024-01-30T03:19:40;90.75;;;37.97;;
58864;SDS011;45702;52.982;6.658;2024-01-30T03:22:06;89.35;;;36.97;;
58864;SDS011;45702;52.982;6.658;2024-01-30T03:24:32;88.35;;;38.45;;
58864;SDS011;45702;52.982;6.658;2024-01-30T03:26:59;89.38;;;37.08;;
58864;SDS011;45702;52.982;6.658;2024-01-30T03:29:25;81.22;;;37.38;;
58864;SDS011;45702;52.982;6.658;2024-01-30T03:31:51;82.22;;;33.92;;
58864;SDS011;45702;52.982;6.658;2024-01-30T03:34:17;79.47;;;36.15;;
58864;SDS011;45702;52.982;6.658;2024-01-30T03:36:43;90.03;;;36.22;;
58864;SDS011;45702;52.982;6.658;2024-01-30T03:39:09;74.00;;;33.35;;
58864;SDS011;45702;52.982;6.658;2024-01-30T03:41:35;84.13;;;35.28;;
58864;SDS011;45702;52.982;6.658;2024-01-30T03:44:01;71.90;;;32.65;;
58864;SDS011;45702;52.982;6.658;2024-01-30T03:46:27;85.45;;;35.08;;
58864;SDS011;45702;52.982;6.658;2024-01-30T03:48:53;81.45;;;34.90;;
58864;SDS011;45702;52.982;6.658;2024-01-30T03:51:19;79.72;;;36.17;;
58864;SDS011;45702;52.982;6.658;2024-01-30T03:53:45;84.32;;;36.20;;
58864;SDS011;45702;52.982;6.658;2024-01-30T03:56:12;84.03;;;33.85;;
58864;SDS011;45702;52.982;6.658;2024-01-30T03:58:39;82.88;;;36.45;;
58864;SDS011;45702;52.982;6.658;2024-01-30T04:01:05;78.55;;;35.97;;
58864;SDS011;45702;52.982;6.658;2024-01-30T04:03:31;76.43;;;32.05;;
58864;SDS011;45702;52.982;6.658;2024-01-30T04:05:57;80.07;;;36.00;;
58864;SDS011;45702;52.982;6.658;2024-01-30T04:08:23;80.03;;;35.75;;
58864;SDS011;45702;52.982;6.658;2024-01-30T04:10:49;65.57;;;27.73;;
58864;SDS011;45702;52.982;6.658;2024-01-30T04:13:15;75.65;;;33.38;;
58864;SDS011;45702;52.982;6.658;2024-01-30T04:15:41;79.20;;;34.47;;
58864;SDS011;45702;52.982;6.658;2024-01-30T04:18:10;85.95;;;34.65;;
58864;SDS011;45702;52.982;6.658;2024-01-30T04:20:36;78.25;;;34.35;;
58864;SDS011;45702;52.982;6.658;2024-01-30T04:23:02;78.93;;;35.28;;
58864;SDS011;45702;52.982;6.658;2024-01-30T04:25:28;76.60;;;32.65;;
58864;SDS011;45702;52.982;6.658;2024-01-30T04:27:54;70.13;;;30.13;;
58864;SDS011;45702;52.982;6.658;2024-01-30T04:30:20;71.57;;;33.55;;
58864;SDS011;45702;52.982;6.658;2024-01-30T04:32:46;77.25;;;32.65;;
58864;SDS011;45702;52.982;6.658;2024-01-30T04:35:12;70.70;;;31.50;;
58864;SDS011;45702;52.982;6.658;2024-01-30T04:37:38;76.82;;;33.67;;
58864;SDS011;45702;52.982;6.658;2024-01-30T04:40:04;76.95;;;32.22;;
58864;SDS011;45702;52.982;6.658;2024-01-30T04:42:30;78.47;;;34.05;;
58864;SDS011;45702;52.982;6.658;2024-01-30T04:44:56;78.82;;;32.08;;
58864;SDS011;45702;52.982;6.658;2024-01-30T04:47:22;69.25;;;30.80;;
58864;SDS011;45702;52.982;6.658;2024-01-30T04:49:48;74.70;;;33.28;;
58864;SDS011;45702;52.982;6.658;2024-01-30T04:52:15;71.53;;;31.08;;
58864;SDS011;45702;52.982;6.658;2024-01-30T04:54:41;73.05;;;32.90;;
58864;SDS011;45702;52.982;6.658;2024-01-30T04:57:07;75.82;;;33.15;;
58864;SDS011;45702;52.982;6.658;2024-01-30T04:59:36;74.47;;;33.47;;
58864;SDS011;45702;52.982;6.658;2024-01-30T05:02:02;73.40;;;32.15;;
58864;SDS011;45702;52.982;6.658;2024-01-30T05:04:28;77.68;;;34.22;;
58864;SDS011;45702;52.982;6.658;2024-01-30T05:06:54;79.85;;;34.15;;
58864;SDS011;45702;52.982;6.658;2024-01-30T05:09:20;76.35;;;33.75;;
58864;SDS011;45702;52.982;6.658;2024-01-30T05:11:47;79.97;;;32.42;;
58864;SDS011;45702;52.982;6.658;2024-01-30T05:14:13;81.35;;;33.33;;
58864;SDS011;45702;52.982;6.658;2024-01-30T05:16:40;91.05;;;33.53;;
58864;SDS011;45702;52.982;6.658;2024-01-30T05:19:08;85.93;;;35.03;;
58864;SDS011;45702;52.982;6.658;2024-01-30T05:21:34;75.10;;;33.17;;
58864;SDS011;45702;52.982;6.658;2024-01-30T05:24:00;76.85;;;32.95;;
58864;SDS011;45702;52.982;6.658;2024-01-30T05:26:26;78.80;;;33.08;;
58864;SDS011;45702;52.982;6.658;2024-01-30T05:28:52;73.18;;;32.25;;
58864;SDS011;45702;52.982;6.658;2024-01-30T05:31:18;72.30;;;32.60;;
58864;SDS011;45702;52.982;6.658;2024-01-30T05:33:44;70.88;;;30.63;;
58864;SDS011;45702;52.982;6.658;2024-01-30T05:36:13;69.63;;;31.13;;
58864;SDS011;45702;52.982;6.658;2024-01-30T05:38:39;72.38;;;32.65;;
58864;SDS011;45702;52.982;6.658;2024-01-30T05:41:06;72.50;;;31.95;;
58864;SDS011;45702;52.982;6.658;2024-01-30T05:43:32;67.45;;;29.95;;
58864;SDS011;45702;52.982;6.658;2024-01-30T05:45:58;67.32;;;26.70;;
58864;SDS011;45702;52.982;6.658;2024-01-30T05:48:24;71.28;;;30.67;;
58864;SDS011;45702;52.982;6.658;2024-01-30T05:50:50;73.82;;;29.80;;
58864;SDS011;45702;52.982;6.658;2024-01-30T05:53:16;70.07;;;32.38;;
58864;SDS011;45702;52.982;6.658;2024-01-30T05:55:42;79.40;;;34.13;;
58864;SDS011;45702;52.982;6.658;2024-01-30T05:58:08;69.25;;;31.23;;
58864;SDS011;45702;52.982;6.658;2024-01-30T06:00:34;72.15;;;31.25;;
58864;SDS011;45702;52.982;6.658;2024-01-30T06:03:00;69.35;;;29.63;;
58864;SDS011;45702;52.982;6.658;2024-01-30T06:05:26;71.00;;;31.75;;
58864;SDS011;45702;52.982;6.658;2024-01-30T06:07:52;72.88;;;31.60;;
58864;SDS011;45702;52.982;6.658;2024-01-30T06:10:19;73.00;;;31.65;;
58864;SDS011;45702;52.982;6.658;2024-01-30T06:12:50;83.47;;;32.50;;
58864;SDS011;45702;52.982;6.658;2024-01-30T06:15:16;73.45;;;32.47;;
58864;SDS011;45702;52.982;6.658;2024-01-30T06:17:43;71.97;;;31.90;;
58864;SDS011;45702;52.982;6.658;2024-01-30T06:20:09;79.05;;;32.75;;
58864;SDS011;45702;52.982;6.658;2024-01-30T06:22:35;77.05;;;33.80;;
58864;SDS011;45702;52.982;6.658;2024-01-30T06:25:01;79.03;;;33.15;;
58864;SDS011;45702;52.982;6.658;2024-01-30T06:27:27;71.80;;;31.90;;
58864;SDS011;45702;52.982;6.658;2024-01-30T06:29:53;77.90;;;32.70;;
58864;SDS011;45702;52.982;6.658;2024-01-30T06:32:19;73.82;;;32.60;;
58864;SDS011;45702;52.982;6.658;2024-01-30T06:34:45;74.85;;;32.38;;
58864;SDS011;45702;52.982;6.658;2024-01-30T06:37:11;78.53;;;30.17;;
58864;SDS011;45702;52.982;6.658;2024-01-30T06:39:37;76.30;;;32.97;;
58864;SDS011;45702;52.982;6.658;2024-01-30T06:42:04;78.38;;;32.28;;
58864;SDS011;45702;52.982;6.658;2024-01-30T06:44:30;72.95;;;31.17;;
58864;SDS011;45702;52.982;6.658;2024-01-30T06:46:56;78.20;;;31.48;;
58864;SDS011;45702;52.982;6.658;2024-01-30T06:49:22;73.40;;;31.83;;
58864;SDS011;45702;52.982;6.658;2024-01-30T06:51:48;72.25;;;32.83;;
58864;SDS011;45702;52.982;6.658;2024-01-30T06:54:14;76.40;;;33.67;;
58864;SDS011;45702;52.982;6.658;2024-01-30T06:56:40;74.65;;;32.40;;
58864;SDS011;45702;52.982;6.658;2024-01-30T06:59:06;74.95;;;32.22;;
58864;SDS011;45702;52.982;6.658;2024-01-30T07:01:33;80.45;;;32.22;;
58864;SDS011;45702;52.982;6.658;2024-01-30T07:03:59;73.15;;;30.52;;
58864;SDS011;45702;52.982;6.658;2024-01-30T07:06:25;75.40;;;32.03;;
58864;SDS011;45702;52.982;6.658;2024-01-30T07:08:51;80.32;;;32.25;;
58864;SDS011;45702;52.982;6.658;2024-01-30T07:11:21;77.90;;;31.95;;
58864;SDS011;45702;52.982;6.658;2024-01-30T07:13:48;79.18;;;31.73;;
58864;SDS011;45702;52.982;6.658;2024-01-30T07:16:15;76.47;;;32.50;;
58864;SDS011;45702;52.982;6.658;2024-01-30T07:18:41;68.32;;;32.03;;
58864;SDS011;45702;52.982;6.658;2024-01-30T07:21:07;70.10;;;32.35;;
58864;SDS011;45702;52.982;6.658;2024-01-30T07:23:33;74.07;;;32.30;;
58864;SDS011;45702;52.982;6.658;2024-01-30T07:26:00;77.30;;;31.83;;
58864;SDS011;45702;52.982;6.658;2024-01-30T07:28:26;73.93;;;29.73;;
58864;SDS011;45702;52.982;6.658;2024-01-30T07:30:52;71.90;;;31.33;;
58864;SDS011;45702;52.982;6.658;2024-01-30T07:33:18;76.45;;;32.83;;
58864;SDS011;45702;52.982;6.658;2024-01-30T07:35:45;72.95;;;31.35;;
58864;SDS011;45702;52.982;6.658;2024-01-30T07:38:11;69.18;;;27.40;;
58864;SDS011;45702;52.982;6.658;2024-01-30T07:40:37;80.25;;;35.15;;
58864;SDS011;45702;52.982;6.658;2024-01-30T07:43:03;79.78;;;33.10;;
58864;SDS011;45702;52.982;6.658;2024-01-30T07:45:29;80.53;;;33.38;;
58864;SDS011;45702;52.982;6.658;2024-01-30T07:47:58;71.00;;;30.17;;
58864;SDS011;45702;52.982;6.658;2024-01-30T07:50:25;78.53;;;31.67;;
58864;SDS011;45702;52.982;6.658;2024-01-30T07:52:51;79.05;;;32.67;;
58864;SDS011;45702;52.982;6.658;2024-01-30T07:55:22;75.68;;;32.58;;
58864;SDS011;45702;52.982;6.658;2024-01-30T07:57:56;76.93;;;30.90;;
58864;SDS011;45702;52.982;6.658;2024-01-30T08:00:23;75.95;;;31.95;;
58864;SDS011;45702;52.982;6.658;2024-01-30T08:02:53;70.15;;;31.02;;
58864;SDS011;45702;52.982;6.658;2024-01-30T08:05:20;79.03;;;32.92;;
58864;SDS011;45702;52.982;6.658;2024-01-30T08:07:47;71.35;;;28.75;;
58864;SDS011;45702;52.982;6.658;2024-01-30T08:10:13;75.70;;;30.48;;
58864;SDS011;45702;52.982;6.658;2024-01-30T08:12:40;79.00;;;32.15;;
58864;SDS011;45702;52.982;6.658;2024-01-30T08:15:06;71.70;;;30.60;;
58864;SDS011;45702;52.982;6.658;2024-01-30T08:17:32;69.90;;;29.98;;
58864;SDS011;45702;52.982;6.658;2024-01-30T08:19:58;80.03;;;31.80;;
58864;SDS011;45702;52.982;6.658;2024-01-30T08:22:24;75.07;;;31.17;;
58864;SDS011;45702;52.982;6.658;2024-01-30T08:24:51;72.32;;;31.10;;
58864;SDS011;45702;52.982;6.658;2024-01-30T08:27:20;66.85;;;26.52;;
58864;SDS011;45702;52.982;6.658;2024-01-30T08:30:09;69.78;;;28.70;;
58864;SDS011;45702;52.982;6.658;2024-01-30T08:32:35;74.18;;;30.13;;
58864;SDS011;45702;52.982;6.658;2024-01-30T08:35:01;71.47;;;29.75;;
58864;SDS011;45702;52.982;6.658;2024-01-30T08:37:31;65.47;;;29.60;;
58864;SDS011;45702;52.982;6.658;2024-01-30T08:39:57;66.20;;;29.35;;
58864;SDS011;45702;52.982;6.658;2024-01-30T08:42:23;68.00;;;27.05;;
58864;SDS011;45702;52.982;6.658;2024-01-30T08:44:51;68.82;;;29.05;;
58864;SDS011;45702;52.982;6.658;2024-01-30T08:47:18;71.00;;;29.42;;
58864;SDS011;45702;52.982;6.658;2024-01-30T08:49:44;69.63;;;28.50;;
58864;SDS011;45702;52.982;6.658;2024-01-30T08:52:10;65.47;;;28.02;;
58864;SDS011;45702;52.982;6.658;2024-01-30T08:54:36;67.20;;;27.60;;
58864;SDS011;45702;52.982;6.658;2024-01-30T08:57:02;74.03;;;28.38;;
58864;SDS011;45702;52.982;6.658;2024-01-30T08:59:29;64.10;;;26.73;;
58864;SDS011;45702;52.982;6.658;2024-01-30T09:01:55;62.05;;;27.00;;
58864;SDS011;45702;52.982;6.658;2024-01-30T09:04:23;62.45;;;26.60;;
58864;SDS011;45702;52.982;6.658;2024-01-30T09:06:49;61.53;;;24.20;;
58864;SDS011;45702;52.982;6.658;2024-01-30T09:09:15;62.78;;;27.20;;
58864;SDS011;45702;52.982;6.658;2024-01-30T09:11:41;57.13;;;26.23;;
58864;SDS011;45702;52.982;6.658;2024-01-30T09:14:08;64.45;;;26.80;;
58864;SDS011;45702;52.982;6.658;2024-01-30T09:16:34;61.40;;;25.58;;
58864;SDS011;45702;52.982;6.658;2024-01-30T09:19:00;65.15;;;28.05;;
58864;SDS011;45702;52.982;6.658;2024-01-30T09:21:26;60.00;;;24.50;;
58864;SDS011;45702;52.982;6.658;2024-01-30T09:23:54;57.05;;;24.92;;
58864;SDS011;45702;52.982;6.658;2024-01-30T09:26:20;57.65;;;26.38;;
58864;SDS011;45702;52.982;6.658;2024-01-30T09:28:46;63.72;;;25.23;;
58864;SDS011;45702;52.982;6.658;2024-01-30T09:31:12;76.35;;;28.17;;
58864;SDS011;45702;52.982;6.658;2024-01-30T09:33:38;55.15;;;24.75;;
58864;SDS011;45702;52.982;6.658;2024-01-30T09:36:05;60.40;;;26.08;;
58864;SDS011;45702;52.982;6.658;2024-01-30T09:38:31;59.47;;;24.05;;
58864;SDS011;45702;52.982;6.658;2024-01-30T09:40:57;54.10;;;24.20;;
58864;SDS011;45702;52.982;6.658;2024-01-30T09:43:27;59.00;;;26.27;;
58864;SDS011;45702;52.982;6.658;2024-01-30T09:45:59;62.95;;;25.65;;
58864;SDS011;45702;52.982;6.658;2024-01-30T09:48:28;59.95;;;24.60;;
58864;SDS011;45702;52.982;6.658;2024-01-30T09:50:56;62.95;;;24.30;;
58864;SDS011;45702;52.982;6.658;2024-01-30T09:53:22;61.92;;;24.98;;
58864;SDS011;45702;52.982;6.658;2024-01-30T09:55:50;60.88;;;24.23;;
58864;SDS011;45702;52.982;6.658;2024-01-30T09:58:16;54.10;;;24.83;;
58864;SDS011;45702;52.982;6.658;2024-01-30T10:00:42;56.70;;;22.65;;
58864;SDS011;45702;52.982;6.658;2024-01-30T10:03:08;53.30;;;21.10;;
58864;SDS011;45702;52.982;6.658;2024-01-30T10:05:35;56.55;;;24.52;;
58864;SDS011;45702;52.982;6.658;2024-01-30T10:08:07;52.80;;;23.48;;
58864;SDS011;45702;52.982;6.658;2024-01-30T10:10:34;56.17;;;23.38;;
58864;SDS011;45702;52.982;6.658;2024-01-30T10:13:01;48.78;;;22.75;;
58864;SDS011;45702;52.982;6.658;2024-01-30T10:15:28;53.80;;;22.85;;
58864;SDS011;45702;52.982;6.658;2024-01-30T10:17:54;51.55;;;22.23;;
58864;SDS011;45702;52.982;6.658;2024-01-30T10:20:20;49.13;;;22.48;;
58864;SDS011;45702;52.982;6.658;2024-01-30T10:22:47;48.75;;;22.17;;
58864;SDS011;45702;52.982;6.658;2024-01-30T10:25:14;54.28;;;22.50;;
58864;SDS011;45702;52.982;6.658;2024-01-30T10:27:41;50.92;;;22.77;;
58864;SDS011;45702;52.982;6.658;2024-01-30T10:30:07;47.90;;;22.13;;
58864;SDS011;45702;52.982;6.658;2024-01-30T10:32:34;47.80;;;20.80;;
58864;SDS011;45702;52.982;6.658;2024-01-30T10:35:00;56.90;;;21.77;;
58864;SDS011;45702;52.982;6.658;2024-01-30T10:37:26;49.92;;;22.35;;
58864;SDS011;45702;52.982;6.658;2024-01-30T10:39:56;55.55;;;21.88;;
58864;SDS011;45702;52.982;6.658;2024-01-30T10:42:25;53.92;;;22.45;;
58864;SDS011;45702;52.982;6.658;2024-01-30T10:47:21;52.60;;;21.27;;
58864;SDS011;45702;52.982;6.658;2024-01-30T10:49:48;46.80;;;21.73;;
58864;SDS011;45702;52.982;6.658;2024-01-30T10:52:15;48.83;;;21.35;;
58864;SDS011;45702;52.982;6.658;2024-01-30T10:54:42;50.70;;;20.67;;
58864;SDS011;45702;52.982;6.658;2024-01-30T10:57:10;54.15;;;21.95;;
58864;SDS011;45702;52.982;6.658;2024-01-30T10:59:37;51.53;;;21.40;;
58864;SDS011;45702;52.982;6.658;2024-01-30T11:02:03;52.75;;;21.25;;
58864;SDS011;45702;52.982;6.658;2024-01-30T11:04:36;47.92;;;22.27;;
58864;SDS011;45702;52.982;6.658;2024-01-30T11:07:02;53.17;;;21.90;;
58864;SDS011;45702;52.982;6.658;2024-01-30T11:09:29;53.22;;;22.83;;
58864;SDS011;45702;52.982;6.658;2024-01-30T11:11:58;51.53;;;21.70;;
58864;SDS011;45702;52.982;6.658;2024-01-30T11:14:31;51.45;;;22.27;;
58864;SDS011;45702;52.982;6.658;2024-01-30T11:16:57;49.35;;;21.60;;
58864;SDS011;45702;52.982;6.658;2024-01-30T11:19:25;51.15;;;22.13;;
58864;SDS011;45702;52.982;6.658;2024-01-30T11:21:54;53.58;;;22.50;;
58864;SDS011;45702;52.982;6.658;2024-01-30T11:24:22;46.28;;;21.27;;
58864;SDS011;45702;52.982;6.658;2024-01-30T11:27:01;48.05;;;21.58;;
58864;SDS011;45702;52.982;6.658;2024-01-30T11:29:29;53.50;;;22.35;;
58864;SDS011;45702;52.982;6.658;2024-01-30T11:31:55;53.67;;;22.65;;
58864;SDS011;45702;52.982;6.658;2024-01-30T11:34:22;58.42;;;22.73;;
58864;SDS011;45702;52.982;6.658;2024-01-30T11:36:51;52.60;;;23.58;;
58864;SDS011;45702;52.982;6.658;2024-01-30T11:39:23;54.97;;;23.75;;
58864;SDS011;45702;52.982;6.658;2024-01-30T11:41:53;51.35;;;22.85;;
58864;SDS011;45702;52.982;6.658;2024-01-30T11:44:22;51.03;;;22.83;;
58864;SDS011;45702;52.982;6.658;2024-01-30T11:46:49;52.58;;;23.25;;
58864;SDS011;45702;52.982;6.658;2024-01-30T11:49:18;59.25;;;23.58;;
58864;SDS011;45702;52.982;6.658;2024-01-30T11:51:47;54.30;;;23.48;;
58864;SDS011;45702;52.982;6.658;2024-01-30T11:54:14;58.45;;;24.08;;
58864;SDS011;45702;52.982;6.658;2024-01-30T11:56:41;52.28;;;24.42;;
58864;SDS011;45702;52.982;6.658;2024-01-30T11:59:08;53.83;;;23.15;;
58864;SDS011;45702;52.982;6.658;2024-01-30T12:01:34;49.65;;;23.45;;
58864;SDS011;45702;52.982;6.658;2024-01-30T12:04:00;55.17;;;24.17;;
58864;SDS011;45702;52.982;6.658;2024-01-30T12:06:26;54.88;;;23.85;;
58864;SDS011;45702;52.982;6.658;2024-01-30T12:08:59;58.05;;;23.70;;
58864;SDS011;45702;52.982;6.658;2024-01-30T12:11:28;52.05;;;23.60;;
58864;SDS011;45702;52.982;6.658;2024-01-30T12:13:55;51.28;;;23.48;;
58864;SDS011;45702;52.982;6.658;2024-01-30T12:16:21;65.50;;;24.75;;
58864;SDS011;45702;52.982;6.658;2024-01-30T12:18:47;58.30;;;24.13;;
58864;SDS011;45702;52.982;6.658;2024-01-30T12:21:17;62.28;;;24.63;;
58864;SDS011;45702;52.982;6.658;2024-01-30T12:23:43;59.28;;;24.45;;
58864;SDS011;45702;52.982;6.658;2024-01-30T12:26:09;68.10;;;23.13;;
58864;SDS011;45702;52.982;6.658;2024-01-30T12:28:35;55.83;;;20.67;;
58864;SDS011;45702;52.982;6.658;2024-01-30T12:31:02;46.13;;;17.52;;
58864;SDS011;45702;52.982;6.658;2024-01-30T12:33:29;35.78;;;15.70;;
58864;SDS011;45702;52.982;6.658;2024-01-30T12:35:55;39.30;;;15.35;;
58864;SDS011;45702;52.982;6.658;2024-01-30T12:38:22;38.58;;;14.13;;
58864;SDS011;45702;52.982;6.658;2024-01-30T12:40:49;33.83;;;13.13;;
58864;SDS011;45702;52.982;6.658;2024-01-30T12:43:15;31.67;;;11.82;;
58864;SDS011;45702;52.982;6.658;2024-01-30T12:45:42;29.60;;;10.90;;
58864;SDS011;45702;52.982;6.658;2024-01-30T12:48:08;23.83;;;9.48;;
58864;SDS011;45702;52.982;6.658;2024-01-30T12:50:35;14.10;;;5.82;;
58864;SDS011;45702;52.982;6.658;2024-01-30T12:53:01;14.48;;;4.72;;
58864;SDS011;45702;52.982;6.658;2024-01-30T12:55:27;10.68;;;4.50;;
58864;SDS011;45702;52.982;6.658;2024-01-30T12:57:54;13.52;;;4.30;;
58864;SDS011;45702;52.982;6.658;2024-01-30T13:00:20;10.43;;;4.00;;
58864;SDS011;45702;52.982;6.658;2024-01-30T13:02:47;9.73;;;3.70;;
58864;SDS011;45702;52.982;6.658;2024-01-30T13:05:13;13.35;;;3.78;;
58864;SDS011;45702;52.982;6.658;2024-01-30T13:07:39;10.43;;;3.50;;
58864;SDS011;45702;52.982;6.658;2024-01-30T13:10:05;6.82;;;3.67;;
58864;SDS011;45702;52.982;6.658;2024-01-30T13:12:32;12.75;;;3.92;;
58864;SDS011;45702;52.982;6.658;2024-01-30T13:14:58;11.00;;;3.65;;
58864;SDS011;45702;52.982;6.658;2024-01-30T13:17:26;7.97;;;4.30;;
58864;SDS011;45702;52.982;6.658;2024-01-30T13:19:52;9.50;;;3.13;;
58864;SDS011;45702;52.982;6.658;2024-01-30T13:22:19;8.80;;;3.47;;
58864;SDS011;45702;52.982;6.658;2024-01-30T13:24:46;8.95;;;3.70;;
58864;SDS011;45702;52.982;6.658;2024-01-30T13:27:12;10.05;;;3.80;;
58864;SDS011;45702;52.982;6.658;2024-01-30T13:29:39;10.18;;;3.97;;
58864;SDS011;45702;52.982;6.658;2024-01-30T13:32:05;11.82;;;3.90;;
58864;SDS011;45702;52.982;6.658;2024-01-30T13:34:31;8.25;;;3.65;;
58864;SDS011;45702;52.982;6.658;2024-01-30T13:36:57;7.75;;;4.13;;
58864;SDS011;45702;52.982;6.658;2024-01-30T13:39:23;11.80;;;4.30;;
58864;SDS011;45702;52.982;6.658;2024-01-30T13:41:49;10.18;;;4.50;;
58864;SDS011;45702;52.982;6.658;2024-01-30T13:44:16;8.15;;;3.47;;
58864;SDS011;45702;52.982;6.658;2024-01-30T13:46:42;8.23;;;3.80;;
58864;SDS011;45702;52.982;6.658;2024-01-30T13:49:08;10.93;;;3.70;;
58864;SDS011;45702;52.982;6.658;2024-01-30T13:51:34;7.38;;;3.60;;
58864;SDS011;45702;52.982;6.658;2024-01-30T13:54:00;8.80;;;3.85;;
58864;SDS011;45702;52.982;6.658;2024-01-30T13:56:27;8.65;;;4.13;;
58864;SDS011;45702;52.982;6.658;2024-01-30T13:58:53;10.60;;;4.00;;
58864;SDS011;45702;52.982;6.658;2024-01-30T14:01:20;11.95;;;4.43;;
58864;SDS011;45702;52.982;6.658;2024-01-30T14:03:46;8.40;;;4.10;;
58864;SDS011;45702;52.982;6.658;2024-01-30T14:06:12;7.75;;;4.03;;
58864;SDS011;45702;52.982;6.658;2024-01-30T14:08:39;11.75;;;4.53;;
58864;SDS011;45702;52.982;6.658;2024-01-30T14:11:05;11.07;;;4.35;;
58864;SDS011;45702;52.982;6.658;2024-01-30T14:13:31;12.07;;;4.68;;
58864;SDS011;45702;52.982;6.658;2024-01-30T14:15:58;15.63;;;5.60;;
58864;SDS011;45702;52.982;6.658;2024-01-30T14:18:24;13.57;;;5.22;;
58864;SDS011;45702;52.982;6.658;2024-01-30T14:20:50;16.38;;;6.32;;
58864;SDS011;45702;52.982;6.658;2024-01-30T14:23:17;17.98;;;6.50;;